createdAt,value
2022-12-03T00:00:38.636Z,21.60
2022-12-03T00:03:05.083Z,20.42
2022-12-03T00:05:32.366Z,25.05
2022-12-03T00:07:58.750Z,27.02
2022-12-03T00:10:25.077Z,23.63
2022-12-03T00:12:51.531Z,25.30
2022-12-03T00:15:18.126Z,20.15
2022-12-03T00:17:44.422Z,24.00
2022-12-03T00:20:18.220Z,29.33
2022-12-03T00:22:44.670Z,24.15
2022-12-03T00:25:11.000Z,22.65
2022-12-03T00:27:37.394Z,25.55
2022-12-03T00:30:04.895Z,23.15
2022-12-03T00:32:31.263Z,23.83
2022-12-03T00:34:57.628Z,24.38
2022-12-03T00:37:23.939Z,24.80
2022-12-03T00:39:50.451Z,26.70
2022-12-03T00:42:16.938Z,22.75
2022-12-03T00:44:43.611Z,23.52
2022-12-03T00:47:10.007Z,25.63
2022-12-03T00:49:36.618Z,22.95
2022-12-03T00:52:02.987Z,25.38
2022-12-03T00:54:32.089Z,27.38
2022-12-03T00:56:59.085Z,23.65
2022-12-03T00:59:25.570Z,24.50
2022-12-03T01:01:51.967Z,23.98
2022-12-03T01:04:18.653Z,25.17
2022-12-03T01:06:45.204Z,24.30
2022-12-03T01:09:11.626Z,27.30
2022-12-03T01:11:37.950Z,27.70
2022-12-03T01:14:13.936Z,23.88
2022-12-03T01:16:40.679Z,25.52
2022-12-03T01:19:09.023Z,24.70
2022-12-03T01:21:35.530Z,25.42
2022-12-03T01:24:02.539Z,24.58
2022-12-03T01:26:29.133Z,24.92
2022-12-03T01:28:55.588Z,24.75
2022-12-03T01:31:22.225Z,25.58
2022-12-03T01:33:48.589Z,23.42
2022-12-03T01:36:14.920Z,24.60
2022-12-03T01:38:41.276Z,25.55
2022-12-03T01:41:11.662Z,24.30
2022-12-03T01:43:38.604Z,26.48
2022-12-03T01:46:05.183Z,26.92
2022-12-03T01:48:35.516Z,28.17
2022-12-03T01:51:02.031Z,26.75
2022-12-03T01:53:28.459Z,24.33
2022-12-03T01:55:55.284Z,21.17
2022-12-03T01:58:27.161Z,26.30
2022-12-03T02:00:53.840Z,21.80
2022-12-03T02:03:25.313Z,26.42
2022-12-03T02:05:52.484Z,28.70
2022-12-03T02:08:33.383Z,24.05
2022-12-03T02:11:29.244Z,25.88
2022-12-03T02:14:01.689Z,25.60
2022-12-03T02:16:29.126Z,24.38
2022-12-03T02:18:57.213Z,25.65
2022-12-03T02:22:04.287Z,25.38
2022-12-03T02:24:58.290Z,24.30
2022-12-03T02:27:25.398Z,24.98
2022-12-03T02:29:51.971Z,25.35
2022-12-03T02:32:20.411Z,28.55
2022-12-03T02:34:46.844Z,26.75
2022-12-03T02:37:17.236Z,29.83
2022-12-03T02:39:50.292Z,25.48
2022-12-03T02:42:17.819Z,31.25
2022-12-03T02:44:44.280Z,24.73
2022-12-03T02:47:11.124Z,27.92
2022-12-03T02:49:37.525Z,23.25
2022-12-03T02:52:04.206Z,28.38
2022-12-03T02:54:31.190Z,30.13
2022-12-03T02:56:57.761Z,26.65
2022-12-03T02:59:24.750Z,29.48
2022-12-03T03:01:51.203Z,23.98
2022-12-03T03:04:17.723Z,30.88
2022-12-03T03:06:44.389Z,25.25
2022-12-03T03:09:10.805Z,27.45
2022-12-03T03:11:37.362Z,25.98
2022-12-03T03:14:04.221Z,25.70
2022-12-03T03:16:30.751Z,25.55
2022-12-03T03:18:57.120Z,31.65
2022-12-03T03:21:23.708Z,25.05
2022-12-03T03:23:52.426Z,23.48
2022-12-03T03:26:19.639Z,27.90
2022-12-03T03:28:50.788Z,27.85
2022-12-03T03:31:20.946Z,26.83
2022-12-03T03:33:49.316Z,27.67
2022-12-03T03:36:16.584Z,26.13
2022-12-03T03:38:43.972Z,25.40
2022-12-03T03:41:12.365Z,28.00
2022-12-03T03:43:40.362Z,25.25
2022-12-03T03:46:07.713Z,29.67
2022-12-03T03:48:35.308Z,32.30
2022-12-03T03:51:04.227Z,28.60
2022-12-03T03:53:30.958Z,29.05
2022-12-03T03:55:57.418Z,29.15
2022-12-03T03:58:23.891Z,26.17
2022-12-03T04:00:50.402Z,26.70
2022-12-03T04:03:16.811Z,27.77
2022-12-03T04:05:44.828Z,27.15
2022-12-03T04:08:11.288Z,30.25
2022-12-03T04:10:37.653Z,30.70
2022-12-03T04:13:04.899Z,27.80
2022-12-03T04:15:31.449Z,30.17
2022-12-03T04:17:57.780Z,30.42
2022-12-03T04:20:24.106Z,29.50
2022-12-03T04:22:50.715Z,29.42
2022-12-03T04:25:17.078Z,26.25
2022-12-03T04:27:45.381Z,31.13
2022-12-03T04:30:12.206Z,26.42
2022-12-03T04:32:38.744Z,26.23
2022-12-03T04:35:05.393Z,28.25
2022-12-03T04:37:32.066Z,27.73
2022-12-03T04:39:58.366Z,29.27
2022-12-03T04:42:25.011Z,29.20
2022-12-03T04:44:52.793Z,30.42
2022-12-03T04:47:21.316Z,29.13
2022-12-03T04:49:50.327Z,27.08
2022-12-03T04:52:19.091Z,29.17
2022-12-03T04:54:46.281Z,29.15
2022-12-03T04:57:13.092Z,27.98
2022-12-03T04:59:39.937Z,29.50
2022-12-03T05:02:07.117Z,26.75
2022-12-03T05:04:33.810Z,27.50
2022-12-03T05:07:00.169Z,24.08
2022-12-03T05:09:26.583Z,29.15
2022-12-03T05:11:52.905Z,28.23
2022-12-03T05:14:19.346Z,29.13
2022-12-03T05:16:45.971Z,26.02
2022-12-03T05:19:12.390Z,29.50
2022-12-03T05:21:38.744Z,31.17
2022-12-03T05:24:05.590Z,26.92
2022-12-03T05:26:31.934Z,30.52
2022-12-03T05:28:58.369Z,27.88
2022-12-03T05:31:24.846Z,29.45
2022-12-03T05:33:51.400Z,32.60
2022-12-03T05:36:17.819Z,32.38
2022-12-03T05:38:44.258Z,30.08
2022-12-03T05:41:10.722Z,29.40
2022-12-03T05:43:37.145Z,28.58
2022-12-03T05:46:03.550Z,29.58
2022-12-03T05:48:29.975Z,31.98
2022-12-03T05:50:56.291Z,27.75
2022-12-03T05:53:22.621Z,27.65
2022-12-03T05:55:48.949Z,33.17
2022-12-03T05:58:15.419Z,28.17
2022-12-03T06:00:43.040Z,28.08
2022-12-03T06:03:10.524Z,26.80
2022-12-03T06:05:37.239Z,28.33
2022-12-03T06:08:03.890Z,24.20
2022-12-03T06:10:30.379Z,28.73
2022-12-03T06:12:56.999Z,29.85
2022-12-03T06:15:23.933Z,30.65
2022-12-03T06:17:50.576Z,27.85
2022-12-03T06:20:19.355Z,28.20
2022-12-03T06:22:46.586Z,26.38
2022-12-03T06:25:13.819Z,27.83
2022-12-03T06:27:40.488Z,29.70
2022-12-03T06:30:08.137Z,27.98
2022-12-03T06:32:34.678Z,27.52
2022-12-03T06:35:01.179Z,27.90
2022-12-03T06:37:27.717Z,24.48
2022-12-03T06:39:54.107Z,27.10
2022-12-03T06:42:20.476Z,22.38
2022-12-03T06:44:46.859Z,26.80
2022-12-03T06:47:13.618Z,26.98
2022-12-03T06:49:40.014Z,25.17
2022-12-03T06:52:06.517Z,26.13
2022-12-03T06:54:33.062Z,25.60
2022-12-03T06:56:59.750Z,25.27
2022-12-03T06:59:26.104Z,29.23
2022-12-03T07:01:52.509Z,25.40
2022-12-03T07:04:21.173Z,27.10
2022-12-03T07:06:47.555Z,26.90
2022-12-03T07:09:15.127Z,30.52
2022-12-03T07:11:41.501Z,27.00
2022-12-03T07:14:09.013Z,26.10
2022-12-03T07:16:36.320Z,29.85
2022-12-03T07:19:04.279Z,33.03
2022-12-03T07:21:30.724Z,24.00
2022-12-03T07:23:59.592Z,27.90
2022-12-03T07:26:26.271Z,31.20
2022-12-03T07:28:52.714Z,26.10
2022-12-03T07:31:19.134Z,25.23
2022-12-03T07:33:46.469Z,29.88
2022-12-03T07:36:13.230Z,30.83
2022-12-03T07:38:39.914Z,33.35
2022-12-03T07:41:06.365Z,32.28
2022-12-03T07:43:36.227Z,27.52
2022-12-03T07:46:02.658Z,29.85
2022-12-03T07:48:29.072Z,30.92
2022-12-03T07:50:55.457Z,32.55
2022-12-03T07:53:21.830Z,31.73
2022-12-03T07:55:48.195Z,30.77
2022-12-03T07:58:14.894Z,35.58
2022-12-03T08:00:41.298Z,34.50
2022-12-03T08:03:08.032Z,34.03
2022-12-03T08:05:34.452Z,30.70
2022-12-03T08:08:01.861Z,32.22
2022-12-03T08:10:29.935Z,33.70
2022-12-03T08:12:59.000Z,31.17
2022-12-03T08:15:31.052Z,33.08
2022-12-03T08:18:04.894Z,31.00
2022-12-03T08:20:39.293Z,26.95
2022-12-03T08:23:14.648Z,32.83
2022-12-03T08:25:42.356Z,33.97
2022-12-03T08:28:19.493Z,32.70
2022-12-03T08:31:00.700Z,36.08
2022-12-03T08:33:37.159Z,32.97
2022-12-03T08:36:20.799Z,39.58
2022-12-03T08:39:29.851Z,30.27
2022-12-03T08:42:13.885Z,34.63
2022-12-03T08:44:40.844Z,31.02
2022-12-03T08:47:16.011Z,33.22
2022-12-03T08:49:47.388Z,32.05
2022-12-03T08:52:20.375Z,30.13
2022-12-03T08:54:55.709Z,31.17
2022-12-03T08:57:31.291Z,30.58
2022-12-03T09:00:26.631Z,32.75
2022-12-03T09:02:55.490Z,29.88
2022-12-03T09:05:27.370Z,31.95
2022-12-03T09:07:54.031Z,28.85
2022-12-03T09:10:20.890Z,33.92
2022-12-03T09:12:47.584Z,32.03
2022-12-03T09:15:15.969Z,33.70
2022-12-03T09:17:42.481Z,33.53
2022-12-03T09:20:09.244Z,24.88
2022-12-03T09:22:35.911Z,30.25
2022-12-03T09:25:04.872Z,32.80
2022-12-03T09:27:31.400Z,36.85
2022-12-03T09:29:58.002Z,31.80
2022-12-03T09:32:24.475Z,34.88
2022-12-03T09:34:53.921Z,38.42
2022-12-03T09:37:23.407Z,35.80
2022-12-03T09:39:50.213Z,34.65
2022-12-03T09:44:50.845Z,31.90
2022-12-03T09:47:18.182Z,28.13
2022-12-03T09:49:45.109Z,29.38
2022-12-03T09:52:17.989Z,32.85
2022-12-03T09:54:47.479Z,34.33
2022-12-03T09:57:15.347Z,29.30
2022-12-03T09:59:41.729Z,28.83
2022-12-03T10:02:24.808Z,30.00
2022-12-03T10:04:53.196Z,29.35
2022-12-03T10:07:20.215Z,29.55
2022-12-03T10:09:46.614Z,27.58
2022-12-03T10:12:14.930Z,28.95
2022-12-03T10:14:42.728Z,28.50
2022-12-03T10:17:11.586Z,30.88
2022-12-03T10:19:38.039Z,35.53
2022-12-03T10:22:04.338Z,34.38
2022-12-03T10:24:32.913Z,36.42
2022-12-03T10:27:24.527Z,38.55
2022-12-03T10:29:56.463Z,38.75
2022-12-03T10:32:43.933Z,35.03
2022-12-03T10:35:15.906Z,43.10
2022-12-03T10:38:05.427Z,35.40
2022-12-03T10:40:36.659Z,34.67
2022-12-03T10:43:20.474Z,37.25
2022-12-03T10:45:49.854Z,37.97
2022-12-03T10:48:17.855Z,38.53
2022-12-03T10:51:03.109Z,39.30
2022-12-03T10:53:31.829Z,40.60
2022-12-03T10:56:04.761Z,38.95
2022-12-03T10:58:35.408Z,39.83
2022-12-03T11:01:06.531Z,38.03
2022-12-03T11:03:36.755Z,42.10
2022-12-03T11:06:04.754Z,36.67
2022-12-03T11:08:35.641Z,38.00
2022-12-03T11:11:07.301Z,40.50
2022-12-03T11:13:33.866Z,34.45
2022-12-03T11:16:02.176Z,39.38
2022-12-03T11:18:58.525Z,37.25
2022-12-03T11:21:25.138Z,36.35
2022-12-03T11:23:51.621Z,37.72
2022-12-03T11:26:27.146Z,36.08
2022-12-03T11:28:55.917Z,40.38
2022-12-03T11:31:43.288Z,36.85
2022-12-03T11:34:18.873Z,31.90
2022-12-03T11:37:16.380Z,29.05
2022-12-03T11:39:52.449Z,29.35
2022-12-03T11:42:22.375Z,31.75
2022-12-03T11:45:08.648Z,25.65
2022-12-03T11:48:05.923Z,26.15
2022-12-03T11:50:54.367Z,19.83
2022-12-03T11:53:26.385Z,24.52
2022-12-03T11:56:04.415Z,24.48
2022-12-03T11:58:31.743Z,24.35
2022-12-03T12:01:01.037Z,25.05
2022-12-03T12:03:36.094Z,25.38
2022-12-03T12:06:20.120Z,20.83
2022-12-03T12:08:56.908Z,27.35
2022-12-03T12:11:38.153Z,19.98
2022-12-03T12:14:09.551Z,21.27
2022-12-03T12:16:49.379Z,25.35
2022-12-03T12:19:43.583Z,20.63
2022-12-03T12:22:28.790Z,23.38
2022-12-03T12:24:57.469Z,21.60
2022-12-03T12:27:35.027Z,20.70
2022-12-03T12:30:14.904Z,23.33
2022-12-03T12:32:47.601Z,20.42
2022-12-03T12:35:19.078Z,19.05
2022-12-03T12:37:58.557Z,23.15
2022-12-03T12:40:31.470Z,22.60
2022-12-03T12:43:02.108Z,22.42
2022-12-03T12:45:35.598Z,22.88
2022-12-03T12:48:25.290Z,21.38
2022-12-03T12:50:59.798Z,27.17
2022-12-03T12:53:32.091Z,26.70
2022-12-03T12:56:15.132Z,22.20
2022-12-03T12:58:41.833Z,21.73
2022-12-03T13:01:17.475Z,21.42
2022-12-03T13:03:43.854Z,24.88
2022-12-03T13:06:14.833Z,25.55
2022-12-03T13:08:44.980Z,23.58
2022-12-03T13:11:39.750Z,21.58
2022-12-03T13:16:39.865Z,18.25
2022-12-03T13:19:19.653Z,18.10
2022-12-03T13:21:46.503Z,21.13
2022-12-03T13:24:50.883Z,25.83
2022-12-03T13:27:17.158Z,25.40
2022-12-03T13:29:51.409Z,28.05
2022-12-03T13:32:29.257Z,22.77
2022-12-03T13:35:06.059Z,27.60
2022-12-03T13:37:32.786Z,26.67
2022-12-03T13:40:27.471Z,20.15
2022-12-03T13:42:53.976Z,27.25
2022-12-03T13:45:29.475Z,26.00
2022-12-03T13:47:59.014Z,20.90
2022-12-03T13:50:36.504Z,26.35
2022-12-03T13:53:13.519Z,25.02
2022-12-03T13:55:44.233Z,23.88
2022-12-03T13:58:10.644Z,25.42
2022-12-03T14:00:37.015Z,31.90
2022-12-03T14:03:04.473Z,33.15
2022-12-03T14:05:30.987Z,35.17
2022-12-03T14:07:58.881Z,35.10
2022-12-03T14:10:25.538Z,34.45
2022-12-03T14:12:51.991Z,37.88
2022-12-03T14:15:18.350Z,43.30
2022-12-03T14:17:44.818Z,47.15
2022-12-03T14:20:11.736Z,41.40
2022-12-03T14:22:38.213Z,43.95
2022-12-03T14:25:06.083Z,44.22
2022-12-03T14:27:32.546Z,38.95
2022-12-03T14:29:59.492Z,42.90
2022-12-03T14:32:26.290Z,39.72
2022-12-03T14:34:52.697Z,35.83
2022-12-03T14:37:19.016Z,37.22
2022-12-03T14:39:45.365Z,38.15
2022-12-03T14:42:11.786Z,36.55
2022-12-03T14:44:38.218Z,39.40
2022-12-03T14:47:04.808Z,29.48
2022-12-03T14:49:31.235Z,35.45
2022-12-03T14:51:57.659Z,31.98
2022-12-03T14:54:24.266Z,32.28
2022-12-03T14:56:50.691Z,30.92
2022-12-03T14:59:17.219Z,34.75
2022-12-03T15:01:43.622Z,23.00
2022-12-03T15:06:51.699Z,29.25
2022-12-03T15:09:18.230Z,32.10
2022-12-03T15:11:46.380Z,24.27
2022-12-03T15:14:13.656Z,25.83
2022-12-03T15:16:40.910Z,23.05
2022-12-03T15:19:07.419Z,26.55
2022-12-03T15:21:34.026Z,25.80
2022-12-03T15:24:03.882Z,23.95
2022-12-03T15:26:30.328Z,31.20
2022-12-03T15:28:56.855Z,23.40
2022-12-03T15:31:23.455Z,27.33
2022-12-03T15:33:49.993Z,24.95
2022-12-03T15:36:16.597Z,22.70
2022-12-03T15:38:43.259Z,24.10
2022-12-03T15:41:09.828Z,30.65
2022-12-03T15:43:36.210Z,21.67
2022-12-03T15:46:02.619Z,22.95
2022-12-03T15:48:28.988Z,25.98
2022-12-03T15:50:55.351Z,26.70
2022-12-03T15:53:21.630Z,29.70
2022-12-03T15:55:47.925Z,27.63
2022-12-03T15:58:14.420Z,34.85
2022-12-03T16:00:41.000Z,36.33
2022-12-03T16:03:07.675Z,34.70
2022-12-03T16:05:34.129Z,31.20
2022-12-03T16:08:01.110Z,39.92
2022-12-03T16:10:27.672Z,39.13
2022-12-03T16:12:54.096Z,33.05
2022-12-03T16:15:26.466Z,33.65
2022-12-03T16:17:53.682Z,41.72
2022-12-03T16:20:20.020Z,40.05
2022-12-03T16:22:46.502Z,40.08
2022-12-03T16:25:12.936Z,39.13
2022-12-03T16:27:39.275Z,38.63
2022-12-03T16:30:07.284Z,41.55
2022-12-03T16:32:33.717Z,41.33
2022-12-03T16:35:00.136Z,42.78
2022-12-03T16:37:26.483Z,42.28
2022-12-03T16:39:53.143Z,36.67
2022-12-03T16:42:19.816Z,43.80
2022-12-03T16:44:46.170Z,35.85
2022-12-03T16:47:12.686Z,39.05
2022-12-03T16:49:39.047Z,39.15
2022-12-03T16:52:05.423Z,40.50
2022-12-03T16:54:31.761Z,39.45
2022-12-03T16:56:58.309Z,42.95
2022-12-03T16:59:24.614Z,39.28
2022-12-03T17:01:51.209Z,42.25
2022-12-03T17:04:17.652Z,41.35
2022-12-03T17:06:44.082Z,38.22
2022-12-03T17:09:10.452Z,36.15
2022-12-03T17:11:36.851Z,42.20
2022-12-03T17:14:03.375Z,41.33
2022-12-03T17:16:29.828Z,36.03
2022-12-03T17:18:56.201Z,34.42
2022-12-03T17:21:22.615Z,40.72
2022-12-03T17:23:48.996Z,36.65
2022-12-03T17:26:15.434Z,38.22
2022-12-03T17:28:42.508Z,37.30
2022-12-03T17:31:09.069Z,45.90
2022-12-03T17:33:36.225Z,38.45
2022-12-03T17:36:03.380Z,38.75
2022-12-03T17:38:34.152Z,36.10
2022-12-03T17:41:05.542Z,40.20
2022-12-03T17:43:32.014Z,41.42
2022-12-03T17:45:59.757Z,46.97
2022-12-03T17:48:26.457Z,44.17
2022-12-03T17:50:52.948Z,41.95
2022-12-03T17:53:19.381Z,36.60
2022-12-03T17:55:45.724Z,37.15
2022-12-03T17:58:12.249Z,44.80
2022-12-03T18:00:39.446Z,40.83
2022-12-03T18:03:05.855Z,35.45
2022-12-03T18:05:33.678Z,39.03
2022-12-03T18:08:00.478Z,37.65
2022-12-03T18:10:27.086Z,44.88
2022-12-03T18:12:58.309Z,39.35
2022-12-03T18:15:27.788Z,40.78
2022-12-03T18:17:54.232Z,36.95
2022-12-03T18:20:20.615Z,42.10
2022-12-03T18:22:47.062Z,41.40
2022-12-03T18:25:13.913Z,39.03
2022-12-03T18:27:40.415Z,39.17
2022-12-03T18:30:07.527Z,40.50
2022-12-03T18:32:34.014Z,36.33
2022-12-03T18:35:00.446Z,36.22
2022-12-03T18:37:29.342Z,36.80
2022-12-03T18:39:57.345Z,32.13
2022-12-03T18:42:24.577Z,39.67
2022-12-03T18:44:53.903Z,32.40
2022-12-03T18:47:23.556Z,40.85
2022-12-03T18:49:53.621Z,38.13
2022-12-03T18:52:22.161Z,33.72
2022-12-03T18:54:49.142Z,34.20
2022-12-03T18:57:15.831Z,39.42
2022-12-03T18:59:42.518Z,32.35
2022-12-03T19:02:26.653Z,26.20
2022-12-03T19:05:01.803Z,32.25
2022-12-03T19:07:28.270Z,39.80
2022-12-03T19:09:55.078Z,35.92
2022-12-03T19:12:21.835Z,34.55
2022-12-03T19:14:48.228Z,36.08
2022-12-03T19:17:14.653Z,32.03
2022-12-03T19:19:40.966Z,41.75
2022-12-03T19:22:11.622Z,34.17
2022-12-03T19:24:38.384Z,33.80
2022-12-03T19:27:04.840Z,38.08
2022-12-03T19:29:32.165Z,35.83
2022-12-03T19:31:58.585Z,34.50
2022-12-03T19:34:25.068Z,31.67
2022-12-03T19:36:51.991Z,37.88
2022-12-03T19:39:18.613Z,36.67
2022-12-03T19:41:45.229Z,34.20
2022-12-03T19:44:16.458Z,32.70
2022-12-03T19:46:43.538Z,35.30
2022-12-03T19:49:10.719Z,35.28
2022-12-03T19:51:37.228Z,38.17
2022-12-03T19:54:05.393Z,39.22
2022-12-03T19:56:31.944Z,34.88
2022-12-03T19:58:58.759Z,34.33
2022-12-03T20:01:27.935Z,35.90
2022-12-03T20:03:57.366Z,35.92
2022-12-03T20:06:27.909Z,38.53
2022-12-03T20:09:00.966Z,31.63
2022-12-03T20:11:31.564Z,34.28
2022-12-03T20:14:04.364Z,38.70
2022-12-03T20:16:32.496Z,32.33
2022-12-03T20:19:01.871Z,34.60
2022-12-03T20:21:30.879Z,36.95
2022-12-03T20:23:57.686Z,43.92
2022-12-03T20:26:25.168Z,37.47
2022-12-03T20:28:53.465Z,34.88
2022-12-03T20:31:22.365Z,35.83
2022-12-03T20:33:52.054Z,34.25
2022-12-03T20:36:20.388Z,34.83
2022-12-03T20:38:47.242Z,39.00
2022-12-03T20:41:16.119Z,34.92
2022-12-03T20:43:42.658Z,34.55
2022-12-03T20:46:16.827Z,36.05
2022-12-03T20:48:44.361Z,42.50
2022-12-03T20:51:13.938Z,35.97
2022-12-03T20:53:41.582Z,33.03
2022-12-03T20:56:09.119Z,37.22
2022-12-03T20:58:36.235Z,37.25
2022-12-03T21:01:16.216Z,33.80
2022-12-03T21:03:44.253Z,34.97
2022-12-03T21:06:11.604Z,33.95
2022-12-03T21:08:42.023Z,31.50
2022-12-03T21:11:14.821Z,34.65
2022-12-03T21:13:42.237Z,36.13
2022-12-03T21:16:10.773Z,36.40
2022-12-03T21:18:37.611Z,39.47
2022-12-03T21:21:05.167Z,36.33
2022-12-03T21:23:32.864Z,38.55
2022-12-03T21:26:04.907Z,33.88
2022-12-03T21:28:31.543Z,33.72
2022-12-03T21:31:03.520Z,36.17
2022-12-03T21:33:30.318Z,37.92
2022-12-03T21:35:57.158Z,37.10
2022-12-03T21:38:24.532Z,38.10
2022-12-03T21:40:51.156Z,33.88
2022-12-03T21:43:17.712Z,33.67
2022-12-03T21:45:44.624Z,39.40
2022-12-03T21:48:11.055Z,35.60
2022-12-03T21:50:37.405Z,34.65
2022-12-03T21:53:03.872Z,41.78
2022-12-03T21:55:30.246Z,35.97
2022-12-03T21:57:56.668Z,39.33
2022-12-03T22:00:23.186Z,34.50
2022-12-03T22:02:49.579Z,38.90
2022-12-03T22:05:16.191Z,39.58
2022-12-03T22:07:42.764Z,38.95
2022-12-03T22:10:11.039Z,36.47
2022-12-03T22:12:38.693Z,37.30
2022-12-03T22:15:05.566Z,36.08
2022-12-03T22:17:31.924Z,36.50
2022-12-03T22:19:58.333Z,36.80
2022-12-03T22:22:24.734Z,35.13
2022-12-03T22:24:52.133Z,35.08
2022-12-03T22:27:18.465Z,33.80
2022-12-03T22:29:44.844Z,38.90
2022-12-03T22:32:11.412Z,37.30
2022-12-03T22:34:37.747Z,42.42
2022-12-03T22:37:04.490Z,37.10
2022-12-03T22:39:30.848Z,34.65
2022-12-03T22:41:57.207Z,39.42
2022-12-03T22:44:24.760Z,36.58
2022-12-03T22:46:51.267Z,37.63
2022-12-03T22:49:17.942Z,33.92
2022-12-03T22:51:45.714Z,44.28
2022-12-03T22:54:12.191Z,37.83
2022-12-03T22:56:38.592Z,41.72
2022-12-03T22:59:05.482Z,36.20
2022-12-03T23:01:34.869Z,40.22
2022-12-03T23:04:02.154Z,39.85
2022-12-03T23:06:29.997Z,37.80
2022-12-03T23:08:57.738Z,36.88
2022-12-03T23:11:24.280Z,40.47
2022-12-03T23:13:51.111Z,37.00
2022-12-03T23:16:29.766Z,35.50
2022-12-03T23:19:01.074Z,44.42
2022-12-03T23:21:30.592Z,39.97
2022-12-03T23:23:59.355Z,40.03
2022-12-03T23:26:28.245Z,42.05
2022-12-03T23:28:55.003Z,42.10
2022-12-03T23:31:27.151Z,43.25
2022-12-03T23:33:53.944Z,39.63
2022-12-03T23:36:21.512Z,40.60
2022-12-03T23:38:48.107Z,39.20
2022-12-03T23:41:16.869Z,48.13
2022-12-03T23:43:43.730Z,44.00
2022-12-03T23:46:16.352Z,41.38
2022-12-03T23:48:43.545Z,38.38
2022-12-03T23:51:14.724Z,42.80
2022-12-03T23:53:42.406Z,46.60
2022-12-03T23:56:17.754Z,41.58
2022-12-03T23:58:45.108Z,40.80
